Time;durP1;ratioP1;P1;durP2;ratioP2;P2;SDS_P1;SDS_P2;PMS_P1;PMS_P2;Temp;Humidity;BMP_temperature;BMP_pressure;BME280_temperature;BME280_humidity;BME280_pressure;Samples;Min_cycle;Max_cycle;Signal;HPM_P1;HPM_P2
2020/02/24 00:00:24;;;;;;;3.4;2.1;;;;;;;9.52;95.60449;1010.409;;;;
2020/02/24 00:02:49;;;;;;;2.8;1.9;;;;;;;9.56;96.10547;1010.505;;;;
2020/02/24 00:05:14;;;;;;;3;2.1;;;;;;;9.36;95.65039;1010.488;;;;
2020/02/24 00:07:39;;;;;;;2.6;2.1;;;;;;;9.24;96.76367;1010.528;;;;
2020/02/24 00:10:04;;;;;;;3.4;2.3;;;;;;;9.26;96.55078;1010.566;;;;
2020/02/24 00:12:29;;;;;;;4;2.3;;;;;;;9.2;96.17188;1010.483;;;;
2020/02/24 00:14:55;;;;;;;2.7;2.3;;;;;;;9.14;97.16406;1010.574;;;;
2020/02/24 00:17:20;;;;;;;4;2.5;;;;;;;9.12;96.86133;1010.696;;;;
2020/02/24 00:19:45;;;;;;;4;2.7;;;;;;;9.13;96.89746;1010.704;;;;
2020/02/24 00:27:06;;;;;;;4.1;2.9;;;;;;;9;97.4873;1010.752;;;;
2020/02/24 00:29:26;;;;;;;4.7;2.9;;;;;;;9.11;97.58008;1010.834;;;;
2020/02/24 00:31:51;;;;;;;4.4;3.4;;;;;;;9.2;97.17578;1010.802;;;;
2020/02/24 00:34:16;;;;;;;3.8;3;;;;;;;9.15;96.95117;1010.941;;;;
2020/02/24 00:36:41;;;;;;;3.2;2.9;;;;;;;9.16;96.4375;1010.983;;;;
2020/02/24 00:39:06;;;;;;;4.1;2.9;;;;;;;9.08;96.16992;1010.813;;;;
2020/02/24 00:41:31;;;;;;;4.5;3.5;;;;;;;9;97.16797;1010.962;;;;
2020/02/24 00:43:57;;;;;;;5;3.6;;;;;;;8.98;97.52832;1010.956;;;;
2020/02/24 00:46:22;;;;;;;4.1;3.4;;;;;;;8.96;96.81543;1010.972;;;;
2020/02/24 00:48:47;;;;;;;3.8;2.7;;;;;;;8.88;97.15039;1011.149;;;;
2020/02/24 00:51:12;;;;;;;5.5;3.4;;;;;;;8.78;98.06348;1011.093;;;;
2020/02/24 00:53:37;;;;;;;4.4;2.8;;;;;;;8.71;97.00977;1011.115;;;;
2020/02/24 00:56:02;;;;;;;4;2.8;;;;;;;8.7;97.11035;1011.133;;;;
2020/02/24 00:58:27;;;;;;;4.9;3;;;;;;;8.78;97.68652;1011.15;;;;
2020/02/24 01:00:52;;;;;;;3.3;2.4;;;;;;;8.94;96.99121;1011.128;;;;
2020/02/24 01:03:18;;;;;;;8.1;6;;;;;;;8.98;96.29688;1011.282;;;;
2020/02/24 01:05:43;;;;;;;6.4;5.2;;;;;;;8.84;96.52441;1011.3;;;;
2020/02/24 01:08:08;;;;;;;3.7;3.2;;;;;;;8.83;96.61621;1011.232;;;;
2020/02/24 01:10:33;;;;;;;3.7;2.5;;;;;;;8.77;96.6377;1011.162;;;;
2020/02/24 01:12:58;;;;;;;3.3;2.5;;;;;;;8.68;96.03418;1011.106;;;;
2020/02/24 01:15:23;;;;;;;2.8;2.4;;;;;;;8.65;96.26758;1011.215;;;;
2020/02/24 01:17:48;;;;;;;4.6;2.5;;;;;;;8.7;95.79883;1011.249;;;;
2020/02/24 01:20:13;;;;;;;3.3;2.2;;;;;;;8.64;96.09277;1011.312;;;;
2020/02/24 01:22:38;;;;;;;2.8;2.3;;;;;;;8.73;97.02441;1011.329;;;;
2020/02/24 01:25:03;;;;;;;4.1;2.2;;;;;;;8.91;96.32422;1011.388;;;;
2020/02/24 01:27:29;;;;;;;4;2.6;;;;;;;9.11;95.04492;1011.38;;;;
2020/02/24 01:29:54;;;;;;;2.6;2.1;;;;;;;8.99;94.3916;1011.348;;;;
2020/02/24 01:32:19;;;;;;;3.2;2.3;;;;;;;8.79;94.76855;1011.373;;;;
2020/02/24 01:37:17;;;;;;;3.3;2.5;;;;;;;8.88;94.9043;1011.43;;;;
2020/02/24 01:39:34;;;;;;;3.9;2.2;;;;;;;8.78;95.77148;1011.403;;;;
2020/02/24 01:41:59;;;;;;;3.6;2.4;;;;;;;8.74;96.66211;1011.398;;;;
2020/02/24 01:44:24;;;;;;;3;2.4;;;;;;;8.72;95.82813;1011.422;;;;
2020/02/24 01:46:49;;;;;;;4.4;2.5;;;;;;;8.86;94.38672;1011.403;;;;
2020/02/24 01:49:14;;;;;;;3.7;2.2;;;;;;;8.71;95.26563;1011.425;;;;
2020/02/24 01:51:39;;;;;;;3.7;2.5;;;;;;;8.76;95.29785;1011.402;;;;
2020/02/24 01:54:04;;;;;;;2.8;2.5;;;;;;;8.8;95.11426;1011.425;;;;
2020/02/24 01:56:30;;;;;;;4.1;2.8;;;;;;;8.84;94.42871;1011.498;;;;
2020/02/24 01:58:55;;;;;;;3.2;2.9;;;;;;;8.99;94.68848;1011.501;;;;
2020/02/24 02:01:20;;;;;;;2.9;2.6;;;;;;;8.95;95.10254;1011.533;;;;
2020/02/24 02:03:45;;;;;;;4.2;2.7;;;;;;;8.89;94.53125;1011.552;;;;
2020/02/24 02:06:10;;;;;;;3.5;2.9;;;;;;;8.81;95.01367;1011.554;;;;
2020/02/24 02:08:35;;;;;;;4.1;3.2;;;;;;;8.69;96.18457;1011.572;;;;
2020/02/24 02:11:00;;;;;;;4.4;3.3;;;;;;;8.71;96.26855;1011.528;;;;
2020/02/24 02:13:25;;;;;;;3.9;3.4;;;;;;;8.73;96.1582;1011.564;;;;
2020/02/24 02:15:51;;;;;;;4.7;3.6;;;;;;;8.86;96.37109;1011.584;;;;
2020/02/24 02:18:16;;;;;;;4;3.5;;;;;;;8.72;96.14453;1011.614;;;;
2020/02/24 02:20:41;;;;;;;4.1;3.7;;;;;;;8.62;96.56934;1011.644;;;;
2020/02/24 02:23:06;;;;;;;6;4.4;;;;;;;8.69;96.7793;1011.676;;;;
2020/02/24 02:25:31;;;;;;;5.3;4.1;;;;;;;8.47;96.47852;1011.646;;;;
2020/02/24 02:27:56;;;;;;;5.6;4.2;;;;;;;8.42;96.97852;1011.622;;;;
2020/02/24 02:30:21;;;;;;;4.7;4.2;;;;;;;8.35;97.11035;1011.564;;;;
2020/02/24 02:32:47;;;;;;;5.2;4;;;;;;;8.39;96.9834;1011.496;;;;
2020/02/24 02:35:23;;;;;;;4.9;3.9;;;;;;;8.34;96.4043;1011.476;;;;
2020/02/24 02:37:36;;;;;;;3.9;3.5;;;;;;;8.4;95.97168;1011.457;;;;
2020/02/24 02:40:01;;;;;;;4.3;3.7;;;;;;;8.36;95.97559;1011.501;;;;
2020/02/24 02:42:26;;;;;;;4.5;3.6;;;;;;;8.36;96.43066;1011.547;;;;
2020/02/24 02:44:51;;;;;;;5.1;3.5;;;;;;;8.35;96.14258;1011.565;;;;
2020/02/24 02:47:17;;;;;;;4;3.3;;;;;;;8.27;96.3291;1011.537;;;;
2020/02/24 02:49:42;;;;;;;4.4;3.4;;;;;;;8.3;96.27832;1011.474;;;;
2020/02/24 02:52:07;;;;;;;4.2;3.5;;;;;;;8.26;96.12207;1011.427;;;;
2020/02/24 02:54:32;;;;;;;4.4;4;;;;;;;8.24;96.31152;1011.5;;;;
2020/02/24 02:56:57;;;;;;;6.1;4.7;;;;;;;8.18;96.68457;1011.504;;;;
2020/02/24 02:59:22;;;;;;;5.1;4.6;;;;;;;8.2;96.80469;1011.488;;;;
2020/02/24 03:01:47;;;;;;;6.3;5.7;;;;;;;8.25;96.99512;1011.452;;;;
2020/02/24 03:04:12;;;;;;;7;5.5;;;;;;;8.15;96.55566;1011.53;;;;
2020/02/24 03:06:37;;;;;;;6.5;5.8;;;;;;;8.06;97.30762;1011.581;;;;
2020/02/24 03:09:03;;;;;;;6.2;5.5;;;;;;;8.18;96.91211;1011.565;;;;
2020/02/24 03:11:28;;;;;;;5.9;5.3;;;;;;;8.24;96.75586;1011.559;;;;
2020/02/24 03:13:53;;;;;;;6.4;5.3;;;;;;;8.24;97.35938;1011.557;;;;
2020/02/24 03:16:18;;;;;;;6.2;5.2;;;;;;;8.17;98.12891;1011.587;;;;
2020/02/24 03:18:43;;;;;;;5.8;4.8;;;;;;;8.29;97.58594;1011.631;;;;
2020/02/24 03:21:08;;;;;;;5.6;4.6;;;;;;;8.4;96.86035;1011.631;;;;
2020/02/24 03:23:34;;;;;;;4.6;4.2;;;;;;;8.33;96.35449;1011.68;;;;
2020/02/24 03:25:59;;;;;;;4.5;3.9;;;;;;;8.29;96.58594;1011.686;;;;
2020/02/24 03:28:24;;;;;;;4.3;3.6;;;;;;;8.31;97.03418;1011.75;;;;
2020/02/24 03:30:49;;;;;;;3.8;3.3;;;;;;;8.25;97.68066;1011.808;;;;
2020/02/24 03:33:14;;;;;;;4.5;3.6;;;;;;;8.27;97.74121;1011.788;;;;
2020/02/24 03:35:39;;;;;;;4.5;3.4;;;;;;;8.4;97.89551;1011.802;;;;
2020/02/24 03:38:14;;;;;;;4.5;3.4;;;;;;;8.44;97.7002;1011.874;;;;
2020/02/24 03:40:30;;;;;;;4;3.6;;;;;;;8.41;97.55957;1011.855;;;;
2020/02/24 03:42:55;;;;;;;4.8;3.7;;;;;;;8.23;98.16406;1011.782;;;;
2020/02/24 03:45:20;;;;;;;4.3;3.5;;;;;;;8.25;98.51172;1011.754;;;;
2020/02/24 03:47:53;;;;;;;4;3.5;;;;;;;8.22;98.19531;1011.757;;;;
2020/02/24 03:50:46;;;;;;;3.9;3.5;;;;;;;8.21;98.71973;1011.76;;;;
2020/02/24 03:52:36;;;;;;;4;3.3;;;;;;;8.45;97.38379;1011.778;;;;
2020/02/24 03:55:01;;;;;;;3.9;3.5;;;;;;;8.31;97.25;1011.729;;;;
2020/02/24 03:57:26;;;;;;;4.1;3.2;;;;;;;8.37;96.19141;1011.742;;;;
2020/02/24 03:59:51;;;;;;;3.4;2.7;;;;;;;8.3;96.12109;1011.74;;;;
2020/02/24 04:02:27;;;;;;;4.5;3;;;;;;;8.28;96.95703;1011.783;;;;
2020/02/24 04:04:52;;;;;;;3.8;2.8;;;;;;;8.48;95.97656;1011.85;;;;
2020/02/24 04:07:17;;;;;;;3.9;2.5;;;;;;;8.29;93.77246;1011.832;;;;
2020/02/24 04:09:43;;;;;;;3.9;2.2;;;;;;;8.18;94.48926;1011.763;;;;
2020/02/24 04:12:08;;;;;;;2.9;1.9;;;;;;;8.31;93.88086;1011.794;;;;
2020/02/24 04:14:33;;;;;;;3;1.8;;;;;;;8.17;93.96191;1011.718;;;;
2020/02/24 04:16:58;;;;;;;2.3;1.5;;;;;;;8.31;92.79688;1011.722;;;;
2020/02/24 04:19:23;;;;;;;2.8;1.7;;;;;;;8.25;93.29395;1011.671;;;;
2020/02/24 04:21:49;;;;;;;2.2;1.7;;;;;;;8.38;92.80176;1011.645;;;;
2020/02/24 04:24:14;;;;;;;3.9;2.2;;;;;;;8.33;93.82617;1011.616;;;;
2020/02/24 04:26:39;;;;;;;4.5;2;;;;;;;8.33;93.38184;1011.662;;;;
2020/02/24 04:29:04;;;;;;;2.6;1.7;;;;;;;8.31;93.02539;1011.649;;;;
2020/02/24 04:31:29;;;;;;;3.1;1.9;;;;;;;8.1;94.32129;1011.635;;;;
2020/02/24 04:33:54;;;;;;;2.2;1.8;;;;;;;8.1;93.90039;1011.681;;;;
2020/02/24 04:36:19;;;;;;;4.5;2;;;;;;;7.92;94.44141;1011.682;;;;
2020/02/24 04:38:44;;;;;;;3.5;2.1;;;;;;;7.75;94.74707;1011.655;;;;
2020/02/24 04:41:09;;;;;;;3.6;2;;;;;;;7.71;95.54492;1011.701;;;;
2020/02/24 04:43:34;;;;;;;3.2;1.8;;;;;;;7.7;95.28125;1011.832;;;;
2020/02/24 04:45:59;;;;;;;3.6;1.8;;;;;;;7.59;96.23633;1011.827;;;;
2020/02/24 04:48:24;;;;;;;3.6;2.4;;;;;;;7.76;96.45313;1011.717;;;;
2020/02/24 04:50:50;;;;;;;3.7;2.3;;;;;;;7.7;96.15625;1011.764;;;;
2020/02/24 04:53:15;;;;;;;3.5;2.2;;;;;;;7.96;95.65723;1011.723;;;;
2020/02/24 04:55:40;;;;;;;2.9;2.3;;;;;;;7.97;95.0791;1011.739;;;;
2020/02/24 04:58:05;;;;;;;2.6;2.1;;;;;;;8.05;94.9375;1011.741;;;;
2020/02/24 05:00:30;;;;;;;3.4;2.1;;;;;;;7.92;94.7168;1011.703;;;;
2020/02/24 05:02:55;;;;;;;4.1;2.3;;;;;;;7.72;95.39844;1011.67;;;;
2020/02/24 05:05:21;;;;;;;3.5;2.1;;;;;;;7.6;96.00977;1011.752;;;;
2020/02/24 05:07:46;;;;;;;4.1;2.2;;;;;;;7.94;94.80957;1011.737;;;;
2020/02/24 05:10:11;;;;;;;2.5;2.3;;;;;;;7.94;94.12891;1011.692;;;;
2020/02/24 05:12:36;;;;;;;4.1;2.3;;;;;;;8.05;93.76367;1011.635;;;;
2020/02/24 05:15:01;;;;;;;5.8;2.3;;;;;;;7.89;94.06934;1011.63;;;;
2020/02/24 05:17:26;;;;;;;2.8;2.1;;;;;;;7.85;93.74512;1011.607;;;;
2020/02/24 05:19:51;;;;;;;4.1;2.2;;;;;;;7.79;94.8457;1011.616;;;;
2020/02/24 05:22:16;;;;;;;2.9;2;;;;;;;7.63;94.95801;1011.611;;;;
2020/02/24 05:24:41;;;;;;;4.2;2.2;;;;;;;7.68;95.05859;1011.69;;;;
2020/02/24 05:27:07;;;;;;;3.9;2.1;;;;;;;7.65;95.64648;1011.654;;;;
2020/02/24 05:29:32;;;;;;;3.4;2.2;;;;;;;7.72;95.46875;1011.544;;;;
2020/02/24 05:31:57;;;;;;;4.5;2.1;;;;;;;7.65;95.62305;1011.495;;;;
2020/02/24 05:34:22;;;;;;;2.3;1.9;;;;;;;7.76;95.49805;1011.49;;;;
2020/02/24 05:36:47;;;;;;;4.6;2.3;;;;;;;7.91;95.51074;1011.419;;;;
2020/02/24 05:39:12;;;;;;;3;2.4;;;;;;;8.12;94.7832;1011.492;;;;
2020/02/24 05:41:38;;;;;;;4.2;2.4;;;;;;;8.12;94.00684;1011.526;;;;
2020/02/24 05:44:03;;;;;;;3.2;2.3;;;;;;;7.91;94.37109;1011.525;;;;
2020/02/24 05:46:28;;;;;;;3.6;2.5;;;;;;;7.65;96.14648;1011.49;;;;
2020/02/24 05:48:53;;;;;;;4.7;2.9;;;;;;;7.82;96.18262;1011.484;;;;
2020/02/24 05:51:18;;;;;;;4.3;2.7;;;;;;;7.85;95.97461;1011.451;;;;
2020/02/24 05:53:43;;;;;;;3.2;2.6;;;;;;;7.55;97.27051;1011.441;;;;
2020/02/24 05:56:08;;;;;;;4.1;2.7;;;;;;;7.87;96.25;1011.449;;;;
2020/02/24 05:58:33;;;;;;;4.3;2.8;;;;;;;7.91;95.74805;1011.442;;;;
2020/02/24 06:00:58;;;;;;;3.3;2.8;;;;;;;7.91;95.875;1011.37;;;;
2020/02/24 06:03:23;;;;;;;4.6;2.8;;;;;;;7.58;97.1084;1011.346;;;;
2020/02/24 06:05:49;;;;;;;4.7;3.1;;;;;;;7.66;96.62402;1011.335;;;;
2020/02/24 06:08:14;;;;;;;5.7;3.4;;;;;;;7.51;97.1582;1011.412;;;;
2020/02/24 06:10:39;;;;;;;5.5;3.7;;;;;;;7.7;96.82715;1011.414;;;;
2020/02/24 06:13:04;;;;;;;6.8;4.2;;;;;;;7.81;96.6582;1011.389;;;;
2020/02/24 06:15:29;;;;;;;5.5;3.9;;;;;;;7.76;96.10059;1011.323;;;;
2020/02/24 06:17:54;;;;;;;5.6;4.5;;;;;;;7.7;96.32715;1011.263;;;;
2020/02/24 06:20:19;;;;;;;6;4.6;;;;;;;7.58;96.52637;1011.222;;;;
2020/02/24 06:22:44;;;;;;;8.9;5.2;;;;;;;7.65;96.46484;1011.202;;;;
2020/02/24 06:25:09;;;;;;;7.4;5.4;;;;;;;7.64;96.63184;1011.137;;;;
2020/02/24 06:27:34;;;;;;;7.7;6.1;;;;;;;7.54;96.60938;1011.133;;;;
2020/02/24 06:29:59;;;;;;;8.2;5.3;;;;;;;7.51;95.83008;1011.099;;;;
2020/02/24 06:32:25;;;;;;;4.5;3.5;;;;;;;7.44;95.71191;1011.097;;;;
2020/02/24 06:34:50;;;;;;;5.9;3.5;;;;;;;7.38;96.1084;1010.987;;;;
2020/02/24 06:37:15;;;;;;;4.7;3.6;;;;;;;7.5;95.76953;1011.017;;;;
2020/02/24 06:39:40;;;;;;;4.6;3.4;;;;;;;7.42;95.91211;1010.995;;;;
2020/02/24 06:42:05;;;;;;;4.7;3.1;;;;;;;7.41;96.20605;1010.947;;;;
2020/02/24 06:44:30;;;;;;;3.7;2.9;;;;;;;7.47;95.69727;1010.952;;;;
2020/02/24 06:46:55;;;;;;;5.1;3.4;;;;;;;7.46;95.3291;1010.942;;;;
2020/02/24 06:49:20;;;;;;;5.2;3.7;;;;;;;7.54;95.17676;1011.026;;;;
2020/02/24 06:51:45;;;;;;;5;3.9;;;;;;;7.5;95.55566;1011.029;;;;
2020/02/24 06:54:10;;;;;;;5.1;3.5;;;;;;;7.52;95.49121;1010.979;;;;
2020/02/24 06:56:35;;;;;;;7;4;;;;;;;7.65;95.49805;1010.95;;;;
2020/02/24 06:59:01;;;;;;;4.8;3.8;;;;;;;7.65;94.98633;1010.95;;;;
2020/02/24 07:01:25;;;;;;;7.6;5;;;;;;;7.58;95.11816;1010.904;;;;
2020/02/24 07:03:51;;;;;;;6.2;4.3;;;;;;;7.65;95.04297;1010.824;;;;
2020/02/24 07:06:16;;;;;;;6;4.5;;;;;;;7.67;94.99023;1010.791;;;;
2020/02/24 07:08:41;;;;;;;6.2;4.1;;;;;;;7.49;94.22168;1010.849;;;;
2020/02/24 07:11:06;;;;;;;5.3;3.8;;;;;;;7.35;94.73535;1010.779;;;;
2020/02/24 07:13:31;;;;;;;5;3.6;;;;;;;7.34;94.28027;1010.75;;;;
2020/02/24 07:15:57;;;;;;;4.3;3.2;;;;;;;7.29;93.82715;1010.715;;;;
2020/02/24 07:18:22;;;;;;;4.6;3.2;;;;;;;7.17;94.9834;1010.639;;;;
2020/02/24 07:20:47;;;;;;;4.3;3;;;;;;;7.14;95.22559;1010.603;;;;
2020/02/24 07:23:12;;;;;;;5.4;3.1;;;;;;;7.2;95.14844;1010.575;;;;
2020/02/24 07:25:37;;;;;;;3.5;2.6;;;;;;;7.16;95.42188;1010.562;;;;
2020/02/24 07:28:03;;;;;;;3.1;2.7;;;;;;;7.18;95.39453;1010.445;;;;
2020/02/24 07:30:45;;;;;;;3.3;2.7;;;;;;;7.24;95.39453;1010.447;;;;
2020/02/24 07:33:06;;;;;;;5;2.6;;;;;;;7.29;94.98633;1010.441;;;;
2020/02/24 07:38:25;;;;;;;5.4;2.9;;;;;;;7.38;95.18652;1010.469;;;;
2020/02/24 07:40:12;;;;;;;5.9;3.3;;;;;;;7.36;95.37695;1010.417;;;;
2020/02/24 07:42:34;;;;;;;4.8;2.5;;;;;;;7.41;94.05957;1010.472;;;;
2020/02/24 07:44:59;;;;;;;3.2;2.7;;;;;;;7.54;93.79199;1010.476;;;;
2020/02/24 07:47:24;;;;;;;4.7;2.7;;;;;;;7.67;93.55762;1010.453;;;;
2020/02/24 07:49:49;;;;;;;3.6;2.2;;;;;;;7.72;93.36426;1010.382;;;;
2020/02/24 07:52:15;;;;;;;3.6;2.2;;;;;;;7.66;92.55273;1010.339;;;;
2020/02/24 07:54:40;;;;;;;6.9;4.4;;;;;;;7.68;92.6709;1010.381;;;;
2020/02/24 07:57:05;;;;;;;5.1;2.6;;;;;;;7.56;93.61133;1010.377;;;;
2020/02/24 07:59:30;;;;;;;4.6;2.4;;;;;;;7.51;92.79688;1010.365;;;;
2020/02/24 08:01:56;;;;;;;3.5;2.4;;;;;;;7.36;94.13867;1010.307;;;;
2020/02/24 08:04:21;;;;;;;3.4;2.1;;;;;;;7.37;93.21875;1010.252;;;;
2020/02/24 08:06:46;;;;;;;2.5;2;;;;;;;7.25;93.30664;1010.211;;;;
2020/02/24 08:09:11;;;;;;;3;2.1;;;;;;;7.34;93.99609;1010.137;;;;
2020/02/24 08:11:36;;;;;;;3.7;2.1;;;;;;;7.55;92.04297;1010.165;;;;
2020/02/24 08:14:02;;;;;;;1.9;1.7;;;;;;;7.36;91.94336;1010.096;;;;
2020/02/24 08:16:27;;;;;;;3.1;1.9;;;;;;;7.41;92.18262;1009.969;;;;
2020/02/24 08:18:52;;;;;;;3.7;2.1;;;;;;;7.4;92.41895;1009.976;;;;
2020/02/24 08:21:17;;;;;;;3.4;1.8;;;;;;;7.4;92.54395;1009.991;;;;
2020/02/24 08:23:42;;;;;;;2.5;1.9;;;;;;;7.58;91.98047;1009.894;;;;
2020/02/24 08:26:07;;;;;;;2.5;2.1;;;;;;;7.53;92.08301;1009.846;;;;
2020/02/24 08:28:33;;;;;;;3.9;2.4;;;;;;;7.49;92.64355;1009.796;;;;
2020/02/24 08:30:58;;;;;;;3.3;2.3;;;;;;;7.65;92.66699;1009.769;;;;
2020/02/24 08:33:23;;;;;;;4.5;2.4;;;;;;;7.78;92.25;1009.759;;;;
2020/02/24 08:35:48;;;;;;;4.4;2.5;;;;;;;7.79;92.1748;1009.693;;;;
2020/02/24 08:38:13;;;;;;;4.7;2.5;;;;;;;7.58;92.81055;1009.602;;;;
2020/02/24 08:40:38;;;;;;;3.3;2.2;;;;;;;7.54;93.31445;1009.53;;;;
2020/02/24 08:43:04;;;;;;;4.9;2.9;;;;;;;7.44;93.89551;1009.501;;;;
2020/02/24 08:45:29;;;;;;;4.8;2.8;;;;;;;7.41;94.39844;1009.42;;;;
2020/02/24 08:47:54;;;;;;;4.1;3.2;;;;;;;7.52;94.59277;1009.371;;;;
2020/02/24 08:50:19;;;;;;;4.8;2.9;;;;;;;7.59;94.25586;1009.338;;;;
2020/02/24 08:52:44;;;;;;;5.2;2.8;;;;;;;7.6;93.94043;1009.271;;;;
2020/02/24 08:55:09;;;;;;;5;3.1;;;;;;;7.7;94.06445;1009.145;;;;
2020/02/24 08:57:34;;;;;;;4.6;2.3;;;;;;;7.65;92.89453;1009.096;;;;
2020/02/24 09:00:00;;;;;;;3.4;2.4;;;;;;;7.66;93.25977;1009.104;;;;
2020/02/24 09:02:25;;;;;;;4.1;2.7;;;;;;;7.67;93.66992;1009.007;;;;
2020/02/24 09:04:50;;;;;;;4.8;2.8;;;;;;;7.58;94.75293;1008.99;;;;
2020/02/24 09:07:15;;;;;;;3.3;2.7;;;;;;;7.64;94.82324;1008.97;;;;
2020/02/24 09:09:40;;;;;;;4.3;2.8;;;;;;;7.69;94.67773;1008.978;;;;
2020/02/24 09:12:06;;;;;;;4.2;2.9;;;;;;;7.86;94.48633;1008.964;;;;
2020/02/24 09:14:31;;;;;;;4.4;2.7;;;;;;;7.97;93.64551;1008.89;;;;
2020/02/24 09:16:56;;;;;;;4.5;2.6;;;;;;;8.09;92.56836;1008.807;;;;
2020/02/24 09:19:21;;;;;;;3.5;2.7;;;;;;;8.17;92.8457;1008.735;;;;
2020/02/24 09:21:46;;;;;;;4;2.6;;;;;;;8.07;94.18848;1008.714;;;;
2020/02/24 09:24:12;;;;;;;2.7;2.4;;;;;;;8.25;92;1008.725;;;;
2020/02/24 09:26:37;;;;;;;3.3;2.6;;;;;;;8.23;92.58398;1008.697;;;;
2020/02/24 09:29:02;;;;;;;3.4;2.4;;;;;;;8.48;92.64063;1008.643;;;;
2020/02/24 09:31:27;;;;;;;3.9;2.3;;;;;;;8.44;92.09766;1008.512;;;;
2020/02/24 09:33:52;;;;;;;3.9;2.6;;;;;;;8.48;91.98926;1008.529;;;;
2020/02/24 09:36:17;;;;;;;3.4;2.4;;;;;;;8.6;92.3125;1008.485;;;;
2020/02/24 09:38:42;;;;;;;3.4;2.3;;;;;;;8.88;91.55078;1008.41;;;;
2020/02/24 09:41:07;;;;;;;3.2;2.2;;;;;;;8.77;90.63867;1008.383;;;;
2020/02/24 09:43:32;;;;;;;3;2.3;;;;;;;8.56;92.35059;1008.39;;;;
2020/02/24 09:45:58;;;;;;;3.5;2.4;;;;;;;8.6;92.46094;1008.347;;;;
2020/02/24 09:48:23;;;;;;;4.2;2.5;;;;;;;8.72;92.74805;1008.304;;;;
2020/02/24 09:50:48;;;;;;;2.7;2.1;;;;;;;8.88;91.75684;1008.265;;;;
2020/02/24 09:53:13;;;;;;;13;9;;;;;;;8.94;91.73535;1008.203;;;;
2020/02/24 09:55:38;;;;;;;4.4;2.6;;;;;;;8.76;91.66113;1008.164;;;;
2020/02/24 09:58:03;;;;;;;3.9;2.6;;;;;;;8.52;93.12695;1008.159;;;;
2020/02/24 10:00:28;;;;;;;3;2.4;;;;;;;8.58;92.63867;1008.134;;;;
2020/02/24 10:02:54;;;;;;;4;2.6;;;;;;;8.57;93.81055;1008.086;;;;
2020/02/24 10:05:18;;;;;;;3.3;2.7;;;;;;;8.98;93.23926;1008.001;;;;
2020/02/24 10:07:43;;;;;;;2.6;2.2;;;;;;;9.02;92.09277;1007.965;;;;
2020/02/24 10:10:09;;;;;;;4.6;2.6;;;;;;;9.13;91.67285;1007.863;;;;
2020/02/24 10:12:42;;;;;;;3.4;2.2;;;;;;;9.46;90.91016;1007.864;;;;
2020/02/24 10:14:59;;;;;;;3;2.3;;;;;;;9.14;92.2002;1007.745;;;;
2020/02/24 10:17:24;;;;;;;3.2;2.4;;;;;;;9.59;89.70313;1007.688;;;;
2020/02/24 10:19:49;;;;;;;2.8;2.3;;;;;;;9.56;88.90918;1007.63;;;;
2020/02/24 10:22:14;;;;;;;2.7;2.2;;;;;;;9.38;90.33203;1007.594;;;;
2020/02/24 10:24:39;;;;;;;2.5;2.3;;;;;;;9.36;91.35742;1007.551;;;;
2020/02/24 10:27:07;;;;;;;3.4;2.2;;;;;;;9.16;92.70801;1007.545;;;;
2020/02/24 10:29:32;;;;;;;4.2;3;;;;;;;9.31;92.5332;1007.532;;;;
2020/02/24 10:31:58;;;;;;;2.9;2.4;;;;;;;9.44;91.58008;1007.443;;;;
2020/02/24 10:34:22;;;;;;;3.4;2.8;;;;;;;9.6;91.69238;1007.41;;;;
2020/02/24 10:36:47;;;;;;;3.9;3.1;;;;;;;9.42;91.14063;1007.339;;;;
2020/02/24 10:39:13;;;;;;;3.3;2.7;;;;;;;9.59;88.7207;1007.331;;;;
2020/02/24 10:41:38;;;;;;;4;3.1;;;;;;;9.25;91.02441;1007.246;;;;
2020/02/24 10:44:03;;;;;;;4.7;3.3;;;;;;;9.39;91.03223;1007.204;;;;
2020/02/24 10:46:28;;;;;;;11.1;6.8;;;;;;;9.38;92.4668;1007.178;;;;
2020/02/24 10:48:53;;;;;;;22.5;11.1;;;;;;;9.45;93.20215;1007.099;;;;
2020/02/24 10:51:18;;;;;;;7.8;5.1;;;;;;;9.64;92.52539;1006.992;;;;
2020/02/24 10:53:43;;;;;;;4;3;;;;;;;9.7;90.34473;1006.957;;;;
2020/02/24 10:56:08;;;;;;;3.1;2.6;;;;;;;9.46;91.09277;1006.975;;;;
2020/02/24 10:58:34;;;;;;;4.4;3.2;;;;;;;9.55;92.3457;1006.999;;;;
2020/02/24 11:00:59;;;;;;;6.2;4.4;;;;;;;9.54;92.33008;1006.987;;;;
2020/02/24 11:03:24;;;;;;;3.9;3.1;;;;;;;9.45;92.20801;1006.928;;;;
2020/02/24 11:05:49;;;;;;;3.8;2.8;;;;;;;9.48;91.56543;1006.887;;;;
2020/02/24 11:08:14;;;;;;;3.9;3.6;;;;;;;9.44;92.0127;1006.796;;;;
2020/02/24 11:10:39;;;;;;;4.5;3.3;;;;;;;9.44;92.17383;1006.792;;;;
2020/02/24 11:13:05;;;;;;;5.2;3.6;;;;;;;9.48;92.93555;1006.759;;;;
2020/02/24 11:15:29;;;;;;;4.3;3.5;;;;;;;9.59;92.19336;1006.69;;;;
2020/02/24 11:17:55;;;;;;;4.8;4.1;;;;;;;9.55;92.61816;1006.702;;;;
2020/02/24 11:20:20;;;;;;;4.5;3.8;;;;;;;9.88;91.7998;1006.626;;;;
2020/02/24 11:22:45;;;;;;;5.5;4.3;;;;;;;9.73;90.96582;1006.569;;;;
2020/02/24 11:25:10;;;;;;;5.2;4;;;;;;;9.76;90.58496;1006.465;;;;
2020/02/24 11:27:35;;;;;;;5.1;4;;;;;;;10.12;89.50488;1006.466;;;;
2020/02/24 11:30:00;;;;;;;6.5;5.2;;;;;;;10.17;89.97168;1006.433;;;;
2020/02/24 11:32:25;;;;;;;5.4;4.6;;;;;;;9.48;92.30566;1006.354;;;;
2020/02/24 11:34:50;;;;;;;8.1;6.1;;;;;;;9.68;91.84668;1006.21;;;;
2020/02/24 11:37:16;;;;;;;6.8;5.6;;;;;;;9.95;90.47559;1006.152;;;;
2020/02/24 11:39:41;;;;;;;6.7;5.7;;;;;;;9.54;92.5498;1006.02;;;;
2020/02/24 11:42:06;;;;;;;6.9;5.8;;;;;;;9.61;93.08887;1006.02;;;;
2020/02/24 11:44:31;;;;;;;7.4;6.2;;;;;;;9.65;92.55957;1006.013;;;;
2020/02/24 11:46:56;;;;;;;7.7;6.1;;;;;;;9.93;91.2832;1005.948;;;;
2020/02/24 11:49:21;;;;;;;8.1;6.1;;;;;;;9.54;92.80078;1005.865;;;;
2020/02/24 11:51:46;;;;;;;8.9;6.2;;;;;;;9.75;93.11719;1005.823;;;;
2020/02/24 11:54:11;;;;;;;7.2;6.4;;;;;;;9.7;92.43555;1005.743;;;;
2020/02/24 11:56:36;;;;;;;9.7;7.1;;;;;;;9.57;93.34375;1005.687;;;;
2020/02/24 11:59:01;;;;;;;9;7.3;;;;;;;9.69;93.64063;1005.608;;;;
2020/02/24 12:01:27;;;;;;;9.6;7.4;;;;;;;9.85;92.66113;1005.434;;;;
2020/02/24 12:03:52;;;;;;;8.4;7.3;;;;;;;9.93;92.5293;1005.356;;;;
2020/02/24 12:06:17;;;;;;;8.5;7.3;;;;;;;9.67;94.28809;1005.285;;;;
2020/02/24 12:08:42;;;;;;;9;7.1;;;;;;;10.09;92.90527;1005.154;;;;
2020/02/24 12:11:07;;;;;;;8.4;7.5;;;;;;;10.21;93.31055;1005.1;;;;
2020/02/24 12:13:32;;;;;;;9.6;7.7;;;;;;;10.05;92.68066;1004.989;;;;
2020/02/24 12:15:57;;;;;;;10.1;7.9;;;;;;;10.19;93.51172;1004.966;;;;
2020/02/24 12:18:22;;;;;;;10.4;7.9;;;;;;;10.33;92.66016;1004.923;;;;
2020/02/24 12:20:47;;;;;;;9.6;8.1;;;;;;;10.63;92.03711;1004.858;;;;
2020/02/24 12:23:13;;;;;;;9.5;8.3;;;;;;;10.72;91.62305;1004.7;;;;
2020/02/24 12:25:37;;;;;;;9.8;7.9;;;;;;;11.07;90.48047;1004.659;;;;
2020/02/24 12:28:03;;;;;;;8.7;7.8;;;;;;;11.18;90.98633;1004.608;;;;
2020/02/24 12:30:28;;;;;;;8.8;7.9;;;;;;;11.5;89.24023;1004.511;;;;
2020/02/24 12:32:53;;;;;;;9.4;7.8;;;;;;;11.31;90.00391;1004.315;;;;
2020/02/24 12:35:18;;;;;;;8.2;7.4;;;;;;;11.53;89.08496;1004.179;;;;
2020/02/24 12:37:43;;;;;;;7.8;7;;;;;;;11.75;88.7998;1004.064;;;;
2020/02/24 12:40:08;;;;;;;9.5;7.8;;;;;;;12.11;87.20605;1004.028;;;;
2020/02/24 12:42:33;;;;;;;9.4;8.3;;;;;;;12.05;88.02051;1003.935;;;;
2020/02/24 12:44:58;;;;;;;17.7;12.6;;;;;;;12.23;87.35547;1003.897;;;;
2020/02/24 12:47:23;;;;;;;9.4;8.4;;;;;;;12.53;85.86523;1003.766;;;;
2020/02/24 12:49:49;;;;;;;9;8.1;;;;;;;12.27;87.37402;1003.666;;;;
2020/02/24 12:52:14;;;;;;;9.9;8.9;;;;;;;12.51;86.50293;1003.685;;;;
2020/02/24 12:54:39;;;;;;;7.8;6.8;;;;;;;13.25;83.57617;1003.505;;;;
2020/02/24 12:59:32;;;;;;;7.7;6.9;;;;;;;13.22;83.99609;1003.381;;;;
2020/02/24 13:01:54;;;;;;;7.5;6.8;;;;;;;13.62;82.85059;1003.362;;;;
2020/02/24 13:04:19;;;;;;;7.6;6.9;;;;;;;13.44;83.62402;1003.31;;;;
2020/02/24 13:06:44;;;;;;;8.4;7.6;;;;;;;13.55;83.24023;1003.268;;;;
2020/02/24 13:09:10;;;;;;;8.3;7.5;;;;;;;13.35;84.30859;1003.158;;;;
2020/02/24 13:11:34;;;;;;;7.5;6.7;;;;;;;13.7;83.32715;1003.121;;;;
2020/02/24 13:14:00;;;;;;;7.6;6.8;;;;;;;13.51;83.72656;1003.023;;;;
2020/02/24 13:16:25;;;;;;;8.5;7.7;;;;;;;13.45;84.61719;1003.009;;;;
2020/02/24 13:18:50;;;;;;;8;7.2;;;;;;;13.04;86.80469;1002.917;;;;
2020/02/24 13:21:15;;;;;;;8.8;7.5;;;;;;;;;;;;;
2020/02/24 13:23:40;;;;;;;7.8;6.7;;;;;;;;;;;;;
2020/02/24 13:26:05;;;;;;;7.5;6.7;;;;;;;;;;;;;
2020/02/24 13:28:30;;;;;;;7.4;6.4;;;;;;;;;;;;;
2020/02/24 13:30:55;;;;;;;7.8;6.9;;;;;;;;;;;;;
2020/02/24 13:33:20;;;;;;;8.1;7.2;;;;;;;;;;;;;
2020/02/24 13:35:46;;;;;;;7.6;6.9;;;;;;;;;;;;;
2020/02/24 13:38:11;;;;;;;7.3;6.6;;;;;;;;;;;;;
2020/02/24 13:40:36;;;;;;;8.1;7.3;;;;;;;;;;;;;
2020/02/24 13:43:01;;;;;;;8.3;7.2;;;;;;;;;;;;;
2020/02/24 13:45:26;;;;;;;10.6;8.2;;;;;;;;;;;;;
2020/02/24 13:47:51;;;;;;;8.5;7.4;;;;;;;;;;;;;
2020/02/24 13:50:17;;;;;;;9.2;8.1;;;;;;;;;;;;;
2020/02/24 13:52:41;;;;;;;8.4;7.6;;;;;;;;;;;;;
2020/02/24 13:55:06;;;;;;;11.3;8.1;;;;;;;;;;;;;
2020/02/24 13:57:32;;;;;;;8.9;8;;;;;;;;;;;;;
2020/02/24 13:59:57;;;;;;;9.1;8;;;;;;;;;;;;;
2020/02/24 14:02:22;;;;;;;9.6;7.9;;;;;;;;;;;;;
2020/02/24 14:04:47;;;;;;;9;7.8;;;;;;;;;;;;;
2020/02/24 14:07:12;;;;;;;9.2;8;;;;;;;;;;;;;
2020/02/24 14:09:37;;;;;;;8.5;7.6;;;;;;;;;;;;;
2020/02/24 14:12:02;;;;;;;9;7.6;;;;;;;;;;;;;
2020/02/24 14:14:27;;;;;;;10.1;7.5;;;;;;;;;;;;;
2020/02/24 14:16:53;;;;;;;8.9;7.2;;;;;;;;;;;;;
2020/02/24 14:19:18;;;;;;;9.7;7.6;;;;;;;;;;;;;
2020/02/24 14:21:43;;;;;;;9.2;7.3;;;;;;;;;;;;;
2020/02/24 14:24:08;;;;;;;8.5;7.3;;;;;;;;;;;;;
2020/02/24 14:26:33;;;;;;;9.2;7.4;;;;;;;;;;;;;
2020/02/24 14:28:58;;;;;;;8.4;7.1;;;;;;;;;;;;;
2020/02/24 14:31:23;;;;;;;7.2;6.2;;;;;;;;;;;;;
2020/02/24 14:33:49;;;;;;;7.7;6.6;;;;;;;;;;;;;
2020/02/24 14:36:14;;;;;;;7.9;7.1;;;;;;;;;;;;;
2020/02/24 14:38:39;;;;;;;9.1;6.9;;;;;;;;;;;;;
2020/02/24 14:41:04;;;;;;;8.6;6.7;;;;;;;;;;;;;
2020/02/24 14:43:29;;;;;;;7.4;6.1;;;;;;;;;;;;;
2020/02/24 14:45:54;;;;;;;10.8;6.8;;;;;;;;;;;;;
2020/02/24 14:48:20;;;;;;;9.4;6.6;;;;;;;;;;;;;
2020/02/24 14:50:44;;;;;;;7.5;6.3;;;;;;;;;;;;;
2020/02/24 14:53:10;;;;;;;8.6;6.5;;;;;;;;;;;;;
2020/02/24 14:55:34;;;;;;;7.4;6.1;;;;;;;;;;;;;
2020/02/24 14:57:59;;;;;;;8.8;7.5;;;;;;;;;;;;;
2020/02/24 15:00:25;;;;;;;12.1;9.3;;;;;;;;;;;;;
2020/02/24 15:02:50;;;;;;;8.3;6.2;;;;;;;;;;;;;
2020/02/24 15:05:15;;;;;;;6.6;5.9;;;;;;;;;;;;;
2020/02/24 15:07:40;;;;;;;7.6;6;;;;;;;;;;;;;
2020/02/24 15:10:05;;;;;;;9;6.4;;;;;;;;;;;;;